Maurertown, Virginia
Current Conditions -  °F | °C
As of 11:15 PM on Sunday 21 Dec 2014 (Local Time) from KFRR Reporting Station
Clear Clear  
Wind Chill: 28°   Ceiling: Unl
Heat Index: 28°   Visibility: 10mi
Dew Point: 23°   Wind: 3mph
Humidity: 80%   Direction: 330°NNW
Pressure: 30.28"   Gusts: NA
Location:  38.93°N, 78.46°W
Report Text: KFRR 220415Z AUTO 33003KT 10SM CLR M02/M05 A3028 RMK AO1
Loading
Personal Weather Stations






























Interactive Weather Map New forecast layout! Learn more

10-Day Weather Forecast

Advertisements
Track Severe Weather on mobile